createdAt,value
2018-09-26T00:01:57.356Z,1.40
2018-09-26T00:04:28.683Z,2.08
2018-09-26T00:06:57.581Z,1.30
2018-09-26T00:09:26.159Z,1.67
2018-09-26T00:11:54.304Z,1.00
2018-09-26T00:14:22.526Z,1.42
2018-09-26T00:16:50.895Z,2.10
2018-09-26T00:19:19.119Z,1.30
2018-09-26T00:21:47.307Z,1.50
2018-09-26T00:24:15.505Z,1.30
2018-09-26T00:26:43.796Z,1.20
2018-09-26T00:29:11.934Z,1.45
2018-09-26T00:31:40.179Z,1.50
2018-09-26T00:34:08.419Z,1.70
2018-09-26T00:36:36.612Z,1.50
2018-09-26T00:39:06.432Z,1.82
2018-09-26T00:41:34.609Z,1.37
2018-09-26T00:44:02.960Z,1.35
2018-09-26T00:46:31.164Z,1.55
2018-09-26T00:48:59.427Z,1.75
2018-09-26T00:51:27.778Z,1.65
2018-09-26T00:53:55.912Z,1.40
2018-09-26T00:56:24.230Z,1.77
2018-09-26T00:58:52.463Z,1.72
2018-09-26T01:01:20.763Z,1.77
2018-09-26T01:03:49.067Z,1.98
2018-09-26T01:06:17.298Z,2.20
2018-09-26T01:08:45.630Z,2.55
2018-09-26T01:11:13.898Z,2.12
2018-09-26T01:13:42.172Z,2.77
2018-09-26T01:16:10.442Z,2.40
2018-09-26T01:18:38.628Z,2.77
2018-09-26T01:21:07.775Z,2.90
2018-09-26T01:23:36.081Z,2.17
2018-09-26T01:26:04.428Z,2.20
2018-09-26T01:28:32.651Z,2.20
2018-09-26T01:31:01.115Z,4.05
2018-09-26T01:33:29.309Z,2.70
2018-09-26T01:35:57.591Z,2.80
2018-09-26T01:38:25.871Z,3.12
2018-09-26T01:40:54.132Z,3.25
2018-09-26T01:43:22.358Z,2.35
2018-09-26T01:45:51.126Z,2.77
2018-09-26T01:48:19.355Z,2.52
2018-09-26T01:50:47.736Z,3.40
2018-09-26T01:53:15.968Z,2.80
2018-09-26T01:55:44.242Z,2.30
2018-09-26T01:58:12.492Z,1.90
2018-09-26T02:00:40.672Z,2.42
2018-09-26T02:03:08.857Z,1.40
2018-09-26T02:05:37.033Z,2.00
2018-09-26T02:08:05.248Z,2.42
2018-09-26T02:10:33.409Z,1.70
2018-09-26T02:13:01.643Z,2.08
2018-09-26T02:15:29.850Z,2.15
2018-09-26T02:17:58.216Z,2.52
2018-09-26T02:20:26.439Z,1.87
2018-09-26T02:22:54.648Z,2.00
2018-09-26T02:25:22.907Z,1.95
2018-09-26T02:27:51.155Z,2.10
2018-09-26T02:30:19.407Z,1.92
2018-09-26T02:32:47.770Z,1.57
2018-09-26T02:35:16.448Z,2.02
2018-09-26T02:37:44.884Z,1.50
2018-09-26T02:40:14.196Z,2.10
2018-09-26T02:42:42.392Z,2.55
2018-09-26T02:45:10.685Z,1.85
2018-09-26T02:47:38.857Z,1.70
2018-09-26T02:50:07.036Z,2.20
2018-09-26T02:52:35.307Z,2.25
2018-09-26T02:55:03.520Z,1.70
2018-09-26T02:57:31.827Z,1.85
2018-09-26T03:00:00.048Z,2.02
2018-09-26T03:02:28.751Z,1.50
2018-09-26T03:04:56.977Z,2.33
2018-09-26T03:07:25.311Z,1.90
2018-09-26T03:09:53.578Z,1.37
2018-09-26T03:12:21.763Z,1.65
2018-09-26T03:14:49.966Z,2.95
2018-09-26T03:17:18.664Z,1.55
2018-09-26T03:19:46.879Z,1.62
2018-09-26T03:22:15.134Z,2.05
2018-09-26T03:24:43.644Z,2.10
2018-09-26T03:27:11.937Z,2.10
2018-09-26T03:29:40.055Z,2.02
2018-09-26T03:32:08.462Z,3.10
2018-09-26T03:34:36.792Z,1.92
2018-09-26T03:37:05.707Z,2.00
2018-09-26T03:39:33.891Z,2.00
2018-09-26T03:42:02.198Z,1.77
2018-09-26T03:44:30.669Z,1.90
2018-09-26T03:46:58.978Z,1.85
2018-09-26T03:49:27.351Z,2.20
2018-09-26T03:51:55.636Z,1.85
2018-09-26T03:54:23.966Z,2.15
2018-09-26T03:56:52.332Z,1.70
2018-09-26T03:59:20.623Z,1.72
2018-09-26T04:01:48.975Z,1.90
2018-09-26T04:04:17.188Z,2.08
2018-09-26T04:06:45.441Z,1.90
2018-09-26T04:09:13.620Z,2.30
2018-09-26T04:11:41.852Z,2.90
2018-09-26T04:14:10.117Z,2.37
2018-09-26T04:16:38.411Z,3.30
2018-09-26T04:19:06.739Z,2.35
2018-09-26T04:21:34.955Z,3.02
2018-09-26T04:24:03.175Z,2.42
2018-09-26T04:26:31.554Z,1.95
2018-09-26T04:28:59.725Z,2.12
2018-09-26T04:31:27.923Z,2.70
2018-09-26T04:33:56.178Z,2.08
2018-09-26T04:36:24.343Z,2.30
2018-09-26T04:38:52.939Z,3.27
2018-09-26T04:41:20.985Z,2.37
2018-09-26T04:43:49.196Z,2.45
2018-09-26T04:46:17.489Z,1.40
2018-09-26T04:48:45.750Z,2.75
2018-09-26T04:51:14.020Z,2.40
2018-09-26T04:53:42.224Z,3.30
2018-09-26T04:56:10.419Z,3.27
2018-09-26T04:58:38.621Z,2.77
2018-09-26T05:01:06.773Z,2.55
2018-09-26T05:03:34.914Z,2.80
2018-09-26T05:06:03.183Z,2.75
2018-09-26T05:08:31.415Z,2.02
2018-09-26T05:10:59.642Z,1.82
2018-09-26T05:13:27.862Z,1.75
2018-09-26T05:15:56.306Z,2.00
2018-09-26T05:18:24.573Z,1.82
2018-09-26T05:20:52.818Z,1.65
2018-09-26T05:23:21.034Z,1.70
2018-09-26T05:25:49.157Z,2.47
2018-09-26T05:28:17.305Z,2.05
2018-09-26T05:30:45.535Z,1.85
2018-09-26T05:33:13.785Z,2.42
2018-09-26T05:35:42.043Z,2.05
2018-09-26T05:38:10.155Z,2.05
2018-09-26T05:40:38.434Z,2.80
2018-09-26T05:43:06.679Z,2.40
2018-09-26T05:45:34.803Z,2.12
2018-09-26T05:48:03.115Z,2.05
2018-09-26T05:50:31.353Z,3.37
2018-09-26T05:52:59.506Z,1.60
2018-09-26T05:55:27.732Z,2.50
2018-09-26T05:57:55.975Z,2.40
2018-09-26T06:00:24.202Z,2.62
2018-09-26T06:02:52.483Z,2.20
2018-09-26T06:05:20.747Z,3.12
2018-09-26T06:07:48.907Z,2.10
2018-09-26T06:10:17.307Z,2.65
2018-09-26T06:12:45.527Z,3.00
2018-09-26T06:15:13.759Z,3.08
2018-09-26T06:17:42.006Z,3.25
2018-09-26T06:20:10.220Z,2.75
2018-09-26T06:22:38.529Z,2.05
2018-09-26T06:25:06.800Z,2.20
2018-09-26T06:27:35.172Z,4.42
2018-09-26T06:30:03.379Z,2.08
2018-09-26T06:32:32.040Z,2.35
2018-09-26T06:35:00.359Z,2.58
2018-09-26T06:37:28.620Z,2.30
2018-09-26T06:39:56.773Z,2.52
2018-09-26T06:42:24.990Z,2.17
2018-09-26T06:44:53.256Z,2.42
2018-09-26T06:47:21.550Z,2.20
2018-09-26T06:49:49.775Z,1.98
2018-09-26T06:52:18.015Z,2.02
2018-09-26T06:54:46.238Z,2.02
2018-09-26T06:57:14.384Z,1.95
2018-09-26T06:59:42.679Z,1.70
2018-09-26T07:02:11.486Z,2.37
2018-09-26T07:04:39.759Z,2.12
2018-09-26T07:07:07.975Z,2.10
2018-09-26T07:09:36.233Z,1.80
2018-09-26T07:12:04.523Z,2.20
2018-09-26T07:14:32.782Z,2.10
2018-09-26T07:17:01.730Z,2.33
2018-09-26T07:19:29.932Z,3.05
2018-09-26T07:21:58.198Z,2.40
2018-09-26T07:24:26.403Z,2.90
2018-09-26T07:26:54.562Z,3.98
2018-09-26T07:29:22.955Z,1.82
2018-09-26T07:31:51.276Z,2.20
2018-09-26T07:34:23.679Z,1.82
2018-09-26T07:36:52.255Z,1.80
2018-09-26T07:39:20.506Z,1.98
2018-09-26T07:41:48.743Z,1.92
2018-09-26T07:44:17.011Z,2.50
2018-09-26T07:46:45.180Z,1.70
2018-09-26T07:49:13.355Z,1.70
2018-09-26T07:51:41.607Z,2.00
2018-09-26T07:54:09.954Z,1.60
2018-09-26T07:56:38.278Z,1.92
2018-09-26T07:59:07.234Z,1.85
2018-09-26T08:01:35.524Z,1.92
2018-09-26T08:04:03.691Z,2.35
2018-09-26T08:06:31.978Z,1.85
2018-09-26T08:09:00.173Z,2.00
2018-09-26T08:11:28.519Z,1.80
2018-09-26T08:13:56.655Z,2.25
2018-09-26T08:16:24.925Z,2.22
2018-09-26T08:18:53.191Z,1.50
2018-09-26T08:21:21.494Z,1.50
2018-09-26T08:23:49.747Z,1.92
2018-09-26T08:26:18.011Z,1.93
2018-09-26T08:28:46.444Z,1.87
2018-09-26T08:31:14.663Z,2.70
2018-09-26T08:33:42.883Z,2.37
2018-09-26T08:36:11.078Z,2.30
2018-09-26T08:38:39.405Z,2.00
2018-09-26T08:41:07.598Z,2.55
2018-09-26T08:43:35.975Z,2.02
2018-09-26T08:46:04.254Z,2.22
2018-09-26T08:48:32.523Z,2.45
2018-09-26T08:51:00.827Z,2.75
2018-09-26T08:53:29.027Z,2.37
2018-09-26T08:55:57.199Z,1.82
2018-09-26T08:58:25.432Z,1.98
2018-09-26T09:00:54.647Z,1.87
2018-09-26T09:03:22.897Z,2.60
2018-09-26T09:05:51.953Z,1.80
2018-09-26T09:08:20.460Z,1.75
2018-09-26T09:10:48.741Z,2.15
2018-09-26T09:13:17.016Z,2.20
2018-09-26T09:15:45.231Z,2.25
2018-09-26T09:18:13.475Z,2.30
2018-09-26T09:20:41.792Z,1.80
2018-09-26T09:23:10.046Z,2.50
2018-09-26T09:25:38.220Z,2.13
2018-09-26T09:28:06.495Z,1.77
2018-09-26T09:30:34.739Z,1.60
2018-09-26T09:33:02.901Z,2.10
2018-09-26T09:35:31.062Z,2.17
2018-09-26T09:37:59.302Z,2.40
2018-09-26T09:40:27.626Z,2.98
2018-09-26T09:42:55.796Z,2.40
2018-09-26T09:45:23.971Z,2.07
2018-09-26T09:47:52.140Z,2.27
2018-09-26T09:50:20.458Z,2.23
2018-09-26T09:52:48.528Z,1.87
2018-09-26T09:55:16.756Z,2.63
2018-09-26T09:57:45.540Z,1.97
2018-09-26T10:00:14.095Z,1.40
2018-09-26T10:02:42.373Z,1.87
2018-09-26T10:05:10.647Z,2.10
2018-09-26T10:07:38.918Z,2.33
2018-09-26T10:10:07.240Z,2.47
2018-09-26T10:12:35.623Z,1.80
2018-09-26T10:15:03.810Z,1.27
2018-09-26T10:17:32.094Z,1.50
2018-09-26T10:20:00.278Z,1.40
2018-09-26T10:22:28.525Z,1.30
2018-09-26T10:24:56.826Z,1.20
2018-09-26T10:27:25.034Z,1.20
2018-09-26T10:29:53.267Z,1.10
2018-09-26T10:32:21.643Z,1.33
2018-09-26T10:34:49.809Z,1.30
2018-09-26T10:37:17.939Z,1.20
2018-09-26T10:39:46.164Z,1.37
2018-09-26T10:42:14.494Z,1.57
2018-09-26T10:44:42.745Z,2.20
2018-09-26T10:47:10.935Z,1.67
2018-09-26T10:49:39.167Z,1.63
2018-09-26T10:52:07.383Z,2.00
2018-09-26T10:54:35.567Z,1.70
2018-09-26T10:57:03.798Z,1.83
2018-09-26T10:59:32.071Z,1.60
2018-09-26T11:02:00.418Z,1.70
2018-09-26T11:04:28.540Z,1.90
2018-09-26T11:06:56.807Z,1.90
2018-09-26T11:09:24.975Z,1.70
2018-09-26T11:11:53.198Z,2.33
2018-09-26T11:14:21.410Z,1.60
2018-09-26T11:16:49.675Z,2.10
2018-09-26T11:19:17.946Z,1.67
2018-09-26T11:21:46.129Z,1.77
2018-09-26T11:24:14.428Z,1.73
2018-09-26T11:26:42.849Z,1.23
2018-09-26T11:29:10.991Z,1.57
2018-09-26T11:31:39.216Z,1.87
2018-09-26T11:34:07.710Z,1.67
2018-09-26T11:36:35.791Z,1.67
2018-09-26T11:39:05.222Z,1.60
2018-09-26T11:41:33.564Z,1.50
2018-09-26T11:44:01.812Z,1.50
2018-09-26T11:46:30.131Z,2.40
2018-09-26T11:49:05.100Z,2.17
2018-09-26T11:51:33.275Z,1.27
2018-09-26T11:54:01.553Z,1.90
2018-09-26T11:56:30.328Z,1.80
2018-09-26T11:58:58.515Z,1.70
2018-09-26T12:01:26.763Z,1.60
2018-09-26T12:03:54.956Z,1.90
2018-09-26T12:06:23.321Z,2.30
2018-09-26T12:08:51.585Z,1.80
2018-09-26T12:11:19.739Z,1.80
2018-09-26T12:13:47.974Z,1.80
2018-09-26T12:16:16.258Z,1.60
2018-09-26T12:18:44.481Z,1.63
2018-09-26T12:21:12.712Z,2.13
2018-09-26T12:23:40.951Z,1.73
2018-09-26T12:26:09.200Z,1.50
2018-09-26T12:28:37.409Z,1.70
2018-09-26T12:31:05.596Z,1.50
2018-09-26T12:33:33.858Z,1.90
2018-09-26T12:36:02.105Z,1.60
2018-09-26T12:38:30.382Z,2.03
2018-09-26T12:40:58.688Z,1.40
2018-09-26T12:43:26.863Z,1.47
2018-09-26T12:45:55.135Z,1.60
2018-09-26T12:48:23.387Z,2.30
2018-09-26T12:50:51.584Z,1.33
2018-09-26T12:53:19.921Z,1.60
2018-09-26T12:55:48.203Z,1.47
2018-09-26T12:58:16.464Z,1.67
2018-09-26T13:00:44.742Z,1.77
2018-09-26T13:03:12.931Z,1.63
2018-09-26T13:05:41.128Z,1.60
2018-09-26T13:08:09.475Z,1.70
2018-09-26T13:10:37.692Z,1.80
2018-09-26T13:13:05.987Z,1.73
2018-09-26T13:15:34.160Z,1.80
2018-09-26T13:18:02.456Z,1.60
2018-09-26T13:20:30.696Z,1.30
2018-09-26T13:22:58.994Z,1.20
2018-09-26T13:25:27.287Z,1.60
2018-09-26T13:27:55.507Z,1.60
2018-09-26T13:30:23.913Z,1.30
2018-09-26T13:32:52.059Z,1.63
2018-09-26T13:35:20.337Z,1.23
2018-09-26T13:37:48.615Z,1.20
2018-09-26T13:40:16.797Z,1.47
2018-09-26T13:42:45.063Z,1.47
2018-09-26T13:45:13.254Z,1.77
2018-09-26T13:47:41.523Z,1.43
2018-09-26T13:50:09.818Z,1.60
2018-09-26T13:52:38.063Z,1.53
2018-09-26T13:55:06.265Z,1.40
2018-09-26T13:57:34.536Z,1.20
2018-09-26T14:00:02.851Z,1.30
2018-09-26T14:02:38.108Z,1.30
2018-09-26T14:05:06.467Z,1.33
2018-09-26T14:07:34.661Z,1.30
2018-09-26T14:10:02.947Z,1.40
2018-09-26T14:12:31.287Z,1.30
2018-09-26T14:14:59.550Z,1.20
2018-09-26T14:17:28.050Z,1.10
2018-09-26T14:20:12.942Z,1.20
2018-09-26T14:22:41.250Z,1.37
2018-09-26T14:25:09.530Z,1.40
2018-09-26T14:27:37.838Z,1.30
2018-09-26T14:30:06.277Z,1.60
2018-09-26T14:32:34.615Z,1.27
2018-09-26T14:35:02.985Z,1.00
2018-09-26T14:37:31.319Z,1.80
2018-09-26T14:39:59.791Z,0.97
2018-09-26T14:42:28.068Z,1.43
2018-09-26T14:44:56.407Z,1.20
2018-09-26T14:47:24.830Z,1.50
2018-09-26T14:49:53.041Z,1.50
2018-09-26T14:52:21.327Z,1.53
2018-09-26T14:54:49.604Z,1.00
2018-09-26T14:57:17.882Z,0.90
2018-09-26T14:59:46.215Z,0.80
2018-09-26T15:02:14.603Z,1.23
2018-09-26T15:04:42.813Z,1.87
2018-09-26T15:07:11.179Z,1.00
2018-09-26T15:09:39.579Z,1.00
2018-09-26T15:12:08.065Z,0.80
2018-09-26T15:14:36.643Z,1.00
2018-09-26T15:17:04.975Z,1.00
2018-09-26T15:19:33.355Z,1.43
2018-09-26T15:22:01.760Z,0.97
2018-09-26T15:24:30.084Z,1.00
2018-09-26T15:27:05.241Z,0.90
2018-09-26T15:29:33.804Z,1.00
2018-09-26T15:32:02.059Z,1.00
2018-09-26T15:34:30.372Z,0.93
2018-09-26T15:36:58.703Z,0.90
2018-09-26T15:39:27.178Z,0.90
2018-09-26T15:41:55.472Z,0.90
2018-09-26T15:44:24.009Z,0.90
2018-09-26T15:46:52.303Z,1.20
2018-09-26T15:49:20.827Z,1.03
2018-09-26T15:51:49.163Z,0.80
2018-09-26T15:54:17.505Z,0.90
2018-09-26T15:56:46.647Z,0.90
2018-09-26T15:59:15.119Z,0.90
2018-09-26T16:01:43.500Z,0.93
2018-09-26T16:04:23.746Z,0.80
2018-09-26T16:06:51.927Z,0.90
2018-09-26T16:09:20.183Z,0.90
2018-09-26T16:11:48.416Z,0.80
2018-09-26T16:14:16.798Z,1.00
2018-09-26T16:16:45.017Z,1.03
2018-09-26T16:19:13.353Z,0.90
2018-09-26T16:21:41.544Z,0.80
2018-09-26T16:24:09.868Z,0.90
2018-09-26T16:26:38.160Z,1.17
2018-09-26T16:29:07.153Z,1.20
2018-09-26T16:31:35.463Z,0.90
2018-09-26T16:34:03.808Z,0.80
2018-09-26T16:36:31.988Z,1.00
2018-09-26T16:39:00.248Z,1.20
2018-09-26T16:41:28.439Z,1.20
2018-09-26T16:43:56.796Z,0.87
2018-09-26T16:46:25.137Z,1.00
2018-09-26T16:48:57.671Z,1.63
2018-09-26T16:51:29.562Z,0.93
2018-09-26T16:54:01.987Z,1.10
2018-09-26T16:57:09.940Z,1.00
2018-09-26T16:59:41.995Z,1.07
2018-09-26T17:02:14.885Z,1.00
2018-09-26T17:04:47.531Z,1.10
2018-09-26T17:07:20.068Z,1.10
2018-09-26T17:09:52.699Z,1.17
2018-09-26T17:12:35.503Z,1.03
2018-09-26T17:15:07.989Z,1.17
2018-09-26T17:17:40.508Z,1.47
2018-09-26T17:20:23.031Z,1.17
2018-09-26T17:22:55.055Z,1.20
2018-09-26T17:25:25.334Z,1.50
2018-09-26T17:28:41.400Z,1.50
2018-09-26T17:31:13.493Z,1.27
2018-09-26T17:33:46.451Z,1.07
2018-09-26T17:36:19.347Z,1.20
2018-09-26T17:39:07.221Z,2.03
2018-09-26T17:41:38.751Z,1.20
2018-09-26T17:44:11.356Z,1.50
2018-09-26T17:46:43.896Z,1.27
2018-09-26T17:49:16.011Z,1.60
2018-09-26T17:51:49.652Z,1.70
2018-09-26T17:54:21.902Z,1.70
2018-09-26T17:56:54.657Z,1.47
2018-09-26T17:59:33.045Z,1.43
2018-09-26T18:02:10.092Z,1.70
2018-09-26T18:04:42.544Z,2.93
2018-09-26T18:07:15.102Z,1.70
2018-09-26T18:09:47.770Z,1.80
2018-09-26T18:12:21.012Z,1.30
2018-09-26T18:15:02.288Z,2.20
2018-09-26T18:17:43.650Z,2.77
2018-09-26T18:20:15.860Z,2.53
2018-09-26T18:22:50.102Z,3.27
2018-09-26T22:23:38.366Z,2.50
2018-09-26T22:26:11.175Z,2.10
2018-09-26T22:28:44.845Z,2.35
2018-09-26T22:31:16.896Z,2.75
2018-09-26T22:33:48.820Z,2.33
2018-09-26T22:36:25.663Z,2.40
2018-09-26T22:38:58.659Z,1.60
2018-09-26T22:41:34.961Z,2.15
2018-09-26T22:44:07.349Z,2.40
2018-09-26T22:46:39.839Z,2.45
2018-09-26T22:49:11.594Z,2.00
2018-09-26T22:51:43.019Z,2.50
2018-09-26T22:54:14.576Z,1.80
2018-09-26T22:56:45.988Z,3.30
2018-09-26T22:59:16.585Z,2.67
2018-09-26T23:01:46.891Z,1.82
2018-09-26T23:04:23.976Z,2.00
2018-09-26T23:06:56.459Z,1.45
2018-09-26T23:09:28.427Z,2.33
2018-09-26T23:11:56.881Z,2.33
2018-09-26T23:14:25.104Z,2.50
2018-09-26T23:16:53.419Z,2.00
2018-09-26T23:19:21.727Z,3.85
2018-09-26T23:21:50.069Z,2.22
2018-09-26T23:24:18.331Z,2.30
2018-09-26T23:26:46.673Z,2.42
2018-09-26T23:29:14.964Z,2.12
2018-09-26T23:31:43.239Z,2.50
2018-09-26T23:34:11.448Z,2.65
2018-09-26T23:36:39.675Z,2.12
2018-09-26T23:39:09.516Z,2.50
2018-09-26T23:41:38.139Z,2.20
2018-09-26T23:44:06.624Z,2.45
2018-09-26T23:46:35.467Z,2.30
2018-09-26T23:49:03.800Z,2.35
2018-09-26T23:51:32.000Z,3.12
2018-09-26T23:54:00.794Z,1.92
2018-09-26T23:56:29.422Z,2.33
2018-09-26T23:58:58.097Z,2.35
